Time;durP1;ratioP1;P1;durP2;ratioP2;P2;SDS_P1;SDS_P2;PMS_P1;PMS_P2;Temp;Humidity;BMP_temperature;BMP_pressure;BME280_temperature;BME280_humidity;BME280_pressure;Samples;Min_cycle;Max_cycle;Signal;HPM_P1;HPM_P2
2021/08/10 02:47:29;;;;;;;;;;;16.00;99.90;;;;;;5;36014561;41308931;-87
2021/08/10 02:50:49;;;;;;;;;;;16.00;99.90;;;;;;5;36013252;41268023;-88
2021/08/10 02:54:08;;;;;;;;;;;15.90;99.90;;;;;;5;36014848;41267695;-87
2021/08/10 02:57:22;;;;;;;;;;;15.90;99.90;;;;;;5;36014838;41266127;-87
2021/08/10 03:00:43;;;;;;;;;;;15.80;99.90;;;;;;5;36014428;42015924;-87
2021/08/10 03:04:03;;;;;;;;;;;15.80;99.90;;;;;;5;36012635;41265853;-87
2021/08/10 03:07:25;;;;;;;;;;;15.70;99.90;;;;;;5;36012878;41268676;-87
2021/08/10 03:10:39;;;;;;;;;;;15.60;99.90;;;;;;5;36014263;41265483;-87
2021/08/10 03:13:58;;;;;;;;;;;15.60;99.90;;;;;;5;36014245;41265029;-87
2021/08/10 03:17:17;;;;;;;;;;;15.50;99.90;;;;;;5;36013865;41266939;-91
2021/08/10 03:20:41;;;;;;;;;;;15.40;99.90;;;;;;5;36014159;41265374;-89
2021/08/10 03:23:56;;;;;;;;;;;15.50;99.90;;;;;;5;36014494;41265753;-88
2021/08/10 03:27:13;;;;;;;;;;;15.40;99.90;;;;;;5;36012763;41266377;-87
2021/08/10 03:30:33;;;;;;;;;;;15.40;99.90;;;;;;5;36014651;41266584;-88
2021/08/10 03:33:54;;;;;;;;;;;15.30;99.90;;;;;;5;36014395;42016214;-87
2021/08/10 03:37:11;;;;;;;;;;;15.20;99.90;;;;;;5;36013920;41266280;-94
2021/08/10 03:40:29;;;;;;;;;;;15.20;99.90;;;;;;5;36012403;41268806;-85
2021/08/10 03:43:48;;;;;;;;;;;15.10;99.90;;;;;;5;36014390;41265944;-88
2021/08/10 03:47:12;;;;;;;;;;;15.00;99.90;;;;;;5;36014824;41265641;-88
2021/08/10 03:50:26;;;;;;;;;;;15.00;99.90;;;;;;5;36014450;41266216;-88
2021/08/10 03:53:44;;;;;;;;;;;15.00;99.90;;;;;;5;36012634;41267542;-88
2021/08/10 03:57:04;;;;;;;;;;;14.90;99.90;;;;;;5;36012824;41266994;-89
2021/08/10 04:01:02;;;;;;;;;;;14.90;99.90;;;;;;5;36013203;41266498;-89
2021/08/10 04:04:17;;;;;;;;;;;14.90;99.90;;;;;;5;36014598;41265750;-87
2021/08/10 04:07:35;;;;;;;;;;;14.80;99.90;;;;;;5;36013687;42016184;-88
2021/08/10 04:10:55;;;;;;;;;;;14.80;99.90;;;;;;5;36012931;41265975;-88
2021/08/10 04:14:16;;;;;;;;;;;14.90;99.90;;;;;;5;36014736;41266264;-88
2021/08/10 04:17:34;;;;;;;;;;;14.80;99.90;;;;;;5;36013331;41267720;-88
2021/08/10 04:20:52;;;;;;;;;;;14.80;99.90;;;;;;5;36013877;41265407;-88
2021/08/10 04:24:11;;;;;;;;;;;14.80;99.90;;;;;;5;36014069;41265408;-88
2021/08/10 04:27:30;;;;;;;;;;;14.80;99.90;;;;;;5;36013466;41266332;-87
2021/08/10 04:30:46;;;;;;;;;;;14.80;99.90;;;;;;5;36014220;41266044;-88
2021/08/10 04:34:03;;;;;;;;;;;14.80;99.90;;;;;;5;36013599;41266693;-88
2021/08/10 04:37:23;;;;;;;;;;;14.80;99.90;;;;;;5;36013108;41266512;-88
2021/08/10 04:40:44;;;;;;;;;;;14.80;99.90;;;;;;5;36013916;42016028;-88
2021/08/10 04:43:58;;;;;;;;;;;14.80;99.90;;;;;;5;36014013;41265777;-88
2021/08/10 04:47:15;;;;;;;;;;;14.90;99.90;;;;;;5;36014837;41266654;-88
2021/08/10 04:50:35;;;;;;;;;;;15.00;99.90;;;;;;5;36013052;41266820;-88
2021/08/10 04:53:54;;;;;;;;;;;15.00;99.90;;;;;;5;36013076;41267107;-88
2021/08/10 04:57:08;;;;;;;;;;;15.10;99.90;;;;;;5;36015150;41265962;-88
2021/08/10 05:00:29;;;;;;;;;;;15.20;99.90;;;;;;5;36014232;41265910;-88
2021/08/10 05:03:48;;;;;;;;;;;15.30;99.90;;;;;;5;36013543;41265735;-88
2021/08/10 05:07:08;;;;;;;;;;;15.40;99.90;;;;;;5;36013022;41266429;-88
2021/08/10 05:10:25;;;;;;;;;;;15.60;99.90;;;;;;5;36013474;41265155;-87
2021/08/10 05:13:44;;;;;;;;;;;15.70;99.90;;;;;;5;36015073;42015791;-89
2021/08/10 05:17:04;;;;;;;;;;;15.90;99.90;;;;;;5;36013487;41267936;-87
2021/08/10 05:20:23;;;;;;;;;;;16.00;99.90;;;;;;5;36013962;41264920;-87
2021/08/10 05:23:40;;;;;;;;;;;16.20;99.90;;;;;;5;36014447;41265680;-87
2021/08/10 05:26:57;;;;;;;;;;;16.30;99.90;;;;;;5;36013321;41266503;-88
2021/08/10 05:30:17;;;;;;;;;;;16.30;99.90;;;;;;5;36013058;41266153;-88
2021/08/10 05:33:36;;;;;;;;;;;16.40;99.90;;;;;;5;36012743;41265801;-89
2021/08/10 05:36:51;;;;;;;;;;;16.40;99.90;;;;;;5;36013562;41265478;-91
2021/08/10 05:40:15;;;;;;;;;;;16.50;99.90;;;;;;5;36013883;41266235;-91
2021/08/10 05:43:35;;;;;;;;;;;16.60;99.90;;;;;;5;36016089;41268395;-93
2021/08/10 05:46:56;;;;;;;;;;;16.90;99.90;;;;;;5;36015598;42017799;-91
2021/08/10 05:50:10;;;;;;;;;;;17.00;99.90;;;;;;5;36014215;41270326;-90
2021/08/10 05:53:29;;;;;;;;;;;17.00;99.90;;;;;;5;36015818;41267565;-89
2021/08/10 05:56:48;;;;;;;;;;;16.90;99.90;;;;;;5;36015949;41269277;-89
2021/08/10 06:00:08;;;;;;;;;;;16.90;99.90;;;;;;5;36015082;41267565;-89
2021/08/10 06:03:22;;;;;;;;;;;16.90;99.90;;;;;;5;36014713;41266076;-89
2021/08/10 06:06:39;;;;;;;;;;;17.20;99.90;;;;;;5;36012743;41267615;-89
2021/08/10 06:09:59;;;;;;;;;;;17.40;99.90;;;;;;5;36013919;41265621;-89
2021/08/10 06:13:18;;;;;;;;;;;17.70;99.90;;;;;;5;36013778;41265282;-89
2021/08/10 06:16:33;;;;;;;;;;;17.90;99.90;;;;;;5;36013358;41267074;-89
2021/08/10 06:19:52;;;;;;;;;;;18.10;99.90;;;;;;5;36013581;42016268;-90
2021/08/10 06:23:11;;;;;;;;;;;18.40;99.90;;;;;;5;36013997;41266638;-89
2021/08/10 06:26:31;;;;;;;;;;;18.50;99.30;;;;;;5;36014299;41266434;-89
2021/08/10 06:29:45;;;;;;;;;;;18.80;99.00;;;;;;5;36013929;41266214;-88
2021/08/10 06:33:02;;;;;;;;;;;18.80;99.60;;;;;;5;36014349;41265306;-89
2021/08/10 06:36:22;;;;;;;;;;;18.90;99.90;;;;;;5;36013795;41266162;-89
2021/08/10 06:39:41;;;;;;;;;;;19.00;99.90;;;;;;5;36014588;41265843;-89
2021/08/10 06:42:55;;;;;;;;;;;19.20;99.90;;;;;;5;36014271;41265959;-89
2021/08/10 06:46:13;;;;;;;;;;;19.30;99.50;;;;;;5;36013795;41266244;-89
2021/08/10 06:49:32;;;;;;;;;;;19.50;99.30;;;;;;5;36013855;41266106;-88
2021/08/10 06:52:53;;;;;;;;;;;19.60;98.10;;;;;;5;36014570;42015333;-88
2021/08/10 06:56:08;;;;;;;;;;;19.70;97.80;;;;;;5;36014253;41266717;-89
2021/08/10 06:59:25;;;;;;;;;;;19.90;96.40;;;;;;5;36014816;41266557;-89
2021/08/10 07:02:45;;;;;;;;;;;20.20;95.80;;;;;;5;36012951;41267184;-89
2021/08/10 07:06:04;;;;;;;;;;;20.50;94.80;;;;;;5;36013898;41265408;-89
2021/08/10 07:09:18;;;;;;;;;;;20.40;94.40;;;;;;5;36014619;41266361;-89
2021/08/10 07:12:36;;;;;;;;;;;20.60;94.50;;;;;;5;36012861;41265911;-89
2021/08/10 07:15:55;;;;;;;;;;;20.70;94.60;;;;;;5;36013858;41266612;-89
2021/08/10 07:19:15;;;;;;;;;;;21.00;93.90;;;;;;5;36013700;41265117;-89
2021/08/10 07:22:29;;;;;;;;;;;21.20;93.50;;;;;;5;36014337;41265679;-89
2021/08/10 07:25:48;;;;;;;;;;;21.30;92.80;;;;;;5;36014054;42017151;-89
2021/08/10 07:29:07;;;;;;;;;;;21.40;92.60;;;;;;5;36013376;41267324;-89
2021/08/10 07:32:27;;;;;;;;;;;21.50;91.90;;;;;;5;36012975;41266887;-89
2021/08/10 07:35:41;;;;;;;;;;;21.70;90.90;;;;;;5;36015670;41266187;-89
2021/08/10 07:38:59;;;;;;;;;;;21.70;90.70;;;;;;5;36013009;41266333;-89
2021/08/10 07:42:19;;;;;;;;;;;22.10;90.00;;;;;;5;36013773;41266258;-89
2021/08/10 07:45:39;;;;;;;;;;;22.20;90.20;;;;;;5;36013340;41266496;-89
2021/08/10 07:48:53;;;;;;;;;;;22.40;90.50;;;;;;5;36015136;41265955;-89
2021/08/10 07:52:11;;;;;;;;;;;22.70;89.70;;;;;;5;36013728;41265592;-89
2021/08/10 07:55:30;;;;;;;;;;;23.00;89.30;;;;;;5;36014161;41265522;-90
2021/08/10 07:58:51;;;;;;;;;;;23.40;88.50;;;;;;5;36013172;42016945;-89
2021/08/10 08:02:05;;;;;;;;;;;24.10;85.40;;;;;;5;36013377;41266682;-90
2021/08/10 08:05:23;;;;;;;;;;;24.90;80.30;;;;;;5;36013918;41265938;-89
2021/08/10 08:08:42;;;;;;;;;;;25.90;78.50;;;;;;5;36013759;41266778;-89
2021/08/10 08:12:02;;;;;;;;;;;27.70;72.70;;;;;;5;36013467;41265977;-90
2021/08/10 08:15:16;;;;;;;;;;;30.00;64.60;;;;;;5;36013744;41266420;-90
2021/08/10 08:18:33;;;;;;;;;;;32.30;59.00;;;;;;5;36014860;41266099;-89
2021/08/10 08:21:52;;;;;;;;;;;33.50;54.70;;;;;;5;36013899;41266190;-89
2021/08/10 08:25:12;;;;;;;;;;;35.20;51.40;;;;;;5;36012996;41266498;-90
2021/08/10 08:28:26;;;;;;;;;;;36.80;48.30;;;;;;5;36013521;41265981;-87
2021/08/10 08:31:45;;;;;;;;;;;38.30;45.40;;;;;;5;36014590;42016180;-89
2021/08/10 08:35:05;;;;;;;;;;;38.80;44.60;;;;;;5;36014303;41265699;-87
2021/08/10 08:38:24;;;;;;;;;;;38.30;44.90;;;;;;5;36013967;41266369;-88
2021/08/10 08:41:38;;;;;;;;;;;36.80;46.20;;;;;;5;36013513;41266614;-88
2021/08/10 08:44:55;;;;;;;;;;;35.50;47.90;;;;;;5;36013744;41266108;-88
2021/08/10 08:48:15;;;;;;;;;;;33.90;50.30;;;;;;5;36014061;41266721;-88
2021/08/10 08:51:35;;;;;;;;;;;33.20;50.90;;;;;;5;36014472;41265351;-89
2021/08/10 08:54:49;;;;;;;;;;;32.10;52.30;;;;;;5;36014131;41266322;-88
2021/08/10 08:58:06;;;;;;;;;;;31.70;53.40;;;;;;5;36014920;41265771;-88
2021/08/10 09:01:26;;;;;;;;;;;31.40;53.70;;;;;;5;36013854;41265318;-88
2021/08/10 09:04:47;;;;;;;;;;;30.90;54.50;;;;;;5;36014406;42015913;-88
2021/08/10 09:08:20;;;;;;;;;;;30.60;54.90;;;;;;5;36013496;41267451;-88
2021/08/10 09:11:37;;;;;;;;;;;30.20;56.20;;;;;;5;36012980;41266057;-88
2021/08/10 09:14:57;;;;;;;;;;;29.90;56.70;;;;;;5;36013752;41267092;-88
2021/08/10 09:18:18;;;;;;;;;;;29.70;57.20;;;;;;5;36013087;41268164;-88
2021/08/10 09:21:33;;;;;;;;;;;29.60;57.80;;;;;;5;36014417;41266006;-88
2021/08/10 09:25:17;;;;;;;;;;;29.40;57.80;;;;;;5;36012813;41265961;-88
2021/08/10 09:28:37;;;;;;;;;;;29.50;58.10;;;;;;5;36014604;41267238;-88
2021/08/10 09:32:00;;;;;;;;;;;29.50;58.40;;;;;;5;36014379;41266347;-89
2021/08/10 09:35:18;;;;;;;;;;;30.10;57.30;;;;;;5;36013367;41265867;-88
2021/08/10 09:38:45;;;;;;;;;;;31.00;56.50;;;;;;5;36013503;42016863;-88
2021/08/10 09:42:05;;;;;;;;;;;32.20;53.60;;;;;;5;36013266;41266088;-88
2021/08/10 09:45:25;;;;;;;;;;;33.80;50.90;;;;;;5;36014102;41265006;-88
2021/08/10 09:48:40;;;;;;;;;;;34.60;49.60;;;;;;5;36014351;41265654;-88
2021/08/10 09:51:57;;;;;;;;;;;34.10;48.50;;;;;;5;36013420;41266084;-88
2021/08/10 09:55:17;;;;;;;;;;;33.30;49.70;;;;;;5;36014599;41265896;-88
2021/08/10 09:58:56;;;;;;;;;;;32.70;51.30;;;;;;5;36014789;41265470;-88
2021/08/10 10:02:18;;;;;;;;;;;33.20;50.80;;;;;;5;36014528;41266502;-89
2021/08/10 10:05:43;;;;;;;;;;;35.00;47.40;;;;;;5;36014145;41265951;-88
2021/08/10 10:09:04;;;;;;;;;;;37.20;44.50;;;;;;5;36013631;41266988;-88
2021/08/10 10:12:25;;;;;;;;;;;39.20;43.20;;;;;;5;36013260;42015299;-90
2021/08/10 10:15:40;;;;;;;;;;;40.40;40.20;;;;;;5;36012980;41265221;-87
2021/08/10 10:19:05;;;;;;;;;;;41.40;37.10;;;;;;5;36013521;41265475;-88
2021/08/10 10:22:27;;;;;;;;;;;41.40;36.70;;;;;;5;36012961;41266186;-86
2021/08/10 10:25:47;;;;;;;;;;;40.80;37.30;;;;;;5;36012939;41264167;-84
2021/08/10 10:29:03;;;;;;;;;;;41.10;34.80;;;;;;5;36013769;41264523;-88
2021/08/10 10:32:21;;;;;;;;;;;40.80;35.00;;;;;;5;36013129;41264386;-84
2021/08/10 10:35:41;;;;;;;;;;;41.80;36.20;;;;;;5;36012338;41265804;-85
2021/08/10 10:39:07;;;;;;;;;;;43.80;34.20;;;;;;5;36013293;41265042;-86
2021/08/10 10:42:22;;;;;;;;;;;44.20;33.50;;;;;;5;36012567;41266105;-89
2021/08/10 10:45:41;;;;;;;;;;;44.20;33.10;;;;;;5;36014190;42022219;-89
2021/08/10 10:49:02;;;;;;;;;;;44.10;34.00;;;;;;5;36014011;41266524;-87
2021/08/10 10:52:22;;;;;;;;;;;44.70;33.90;;;;;;5;36014905;41265400;-91
2021/08/10 10:55:37;;;;;;;;;;;44.80;33.00;;;;;;5;36013169;41265022;-88
2021/08/10 10:58:56;;;;;;;;;;;44.20;33.00;;;;;;5;36013514;41266113;-89
2021/08/10 11:02:23;;;;;;;;;;;43.20;33.70;;;;;;5;36014543;41266980;-90
2021/08/10 11:05:42;;;;;;;;;;;42.40;34.20;;;;;;5;36013273;41266098;-89
2021/08/10 11:08:57;;;;;;;;;;;41.70;34.10;;;;;;5;36013716;41267286;-89
2021/08/10 11:12:33;;;;;;;;;;;41.10;34.80;;;;;;5;36013568;41266144;-88
2021/08/10 11:15:52;;;;;;;;;;;41.00;34.80;;;;;;5;36014260;41266424;-88
2021/08/10 11:19:31;;;;;;;;;;;40.90;35.90;;;;;;5;36013162;42016281;-88
2021/08/10 11:22:46;;;;;;;;;;;41.30;35.00;;;;;;5;36014258;41266589;-89
2021/08/10 11:26:05;;;;;;;;;;;41.10;33.80;;;;;;5;36013719;41266557;-89
2021/08/10 11:29:40;;;;;;;;;;;41.40;33.90;;;;;;5;36013416;41265977;-89
2021/08/10 11:32:59;;;;;;;;;;;41.50;34.20;;;;;;5;36014461;41265109;-89
2021/08/10 11:36:14;;;;;;;;;;;41.30;33.60;;;;;;5;36013725;41266661;-89
2021/08/10 11:39:31;;;;;;;;;;;41.00;34.30;;;;;;5;36013752;41266532;-89
2021/08/10 11:42:53;;;;;;;;;;;40.70;34.10;;;;;;5;36013712;41267661;-89
2021/08/10 11:46:14;;;;;;;;;;;40.50;34.70;;;;;;5;36014692;41265235;-89
2021/08/10 11:49:28;;;;;;;;;;;40.30;35.20;;;;;;5;36014394;41266029;-89
2021/08/10 11:52:47;;;;;;;;;;;41.70;34.70;;;;;;5;36013662;42015669;-89
2021/08/10 11:56:20;;;;;;;;;;;43.20;33.50;;;;;;5;36014418;41267357;-90
2021/08/10 11:59:39;;;;;;;;;;;44.50;32.50;;;;;;5;36014326;41265397;-89
2021/08/10 12:02:54;;;;;;;;;;;45.30;32.60;;;;;;5;36013382;41267030;-89
2021/08/10 12:06:12;;;;;;;;;;;44.70;32.90;;;;;;5;36013102;41266053;-89
2021/08/10 12:09:35;;;;;;;;;;;43.70;34.30;;;;;;5;36013813;41267017;-89
2021/08/10 12:12:55;;;;;;;;;;;44.50;33.30;;;;;;5;36013708;41265314;-89
2021/08/10 12:16:10;;;;;;;;;;;45.50;32.30;;;;;;5;36013260;41265896;-89
2021/08/10 12:19:37;;;;;;;;;;;45.80;32.70;;;;;;5;36013802;41265341;-89
2021/08/10 12:23:01;;;;;;;;;;;44.40;32.50;;;;;;5;36014125;41266097;-89
2021/08/10 12:26:21;;;;;;;;;;;43.70;32.60;;;;;;5;36013463;42016515;-89
2021/08/10 12:29:40;;;;;;;;;;;42.30;33.70;;;;;;5;36014529;41265503;-88
2021/08/10 12:33:14;;;;;;;;;;;41.70;35.30;;;;;;5;36013433;41265823;-88
2021/08/10 12:36:47;;;;;;;;;;;40.10;36.40;;;;;;5;36014165;41266067;-88
2021/08/10 12:40:12;;;;;;;;;;;38.60;38.00;;;;;;5;36013568;41265532;-87
2021/08/10 12:43:28;;;;;;;;;;;37.60;40.30;;;;;;5;36013263;41265627;-87
2021/08/10 12:46:52;;;;;;;;;;;36.80;41.60;;;;;;5;36013762;41265030;-88
2021/08/10 12:50:25;;;;;;;;;;;36.50;42.10;;;;;;5;36014133;41265281;-88
2021/08/10 12:53:44;;;;;;;;;;;36.40;43.10;;;;;;5;36013577;41266444;-88
2021/08/10 12:57:00;;;;;;;;;;;37.00;42.60;;;;;;5;36014325;41266469;-88
2021/08/10 13:00:19;;;;;;;;;;;37.40;40.80;;;;;;5;36013309;42016084;-87
2021/08/10 13:03:39;;;;;;;;;;;37.70;41.70;;;;;;5;36013810;41266331;-87
2021/08/10 13:07:14;;;;;;;;;;;38.00;40.90;;;;;;5;36014407;41265437;-87
2021/08/10 13:10:29;;;;;;;;;;;38.50;40.30;;;;;;5;36014658;41265646;-87
2021/08/10 13:13:48;;;;;;;;;;;39.50;39.80;;;;;;5;36013463;41265652;-88
2021/08/10 13:17:26;;;;;;;;;;;40.20;37.30;;;;;;5;36013140;41266633;-88
2021/08/10 13:21:02;;;;;;;;;;;40.30;37.30;;;;;;5;36013938;41266585;-88
2021/08/10 13:24:19;;;;;;;;;;;40.10;37.70;;;;;;5;36014141;41266627;-88
2021/08/10 13:27:36;;;;;;;;;;;39.60;37.00;;;;;;5;36014109;41265964;-88
2021/08/10 13:31:14;;;;;;;;;;;39.10;37.10;;;;;;5;36012907;41266507;-88
2021/08/10 13:34:42;;;;;;;;;;;38.10;39.60;;;;;;5;36013652;42017524;-89
2021/08/10 13:37:56;;;;;;;;;;;37.30;40.00;;;;;;5;36014087;41265626;-87
2021/08/10 13:41:14;;;;;;;;;;;36.30;40.20;;;;;;5;36014167;41266138;-88
2021/08/10 13:44:33;;;;;;;;;;;35.50;42.40;;;;;;5;36013519;41266819;-87
2021/08/10 13:47:53;;;;;;;;;;;35.20;43.60;;;;;;5;36014125;41266907;-88
2021/08/10 13:51:07;;;;;;;;;;;35.10;43.60;;;;;;5;36013319;41266419;-87
2021/08/10 13:54:24;;;;;;;;;;;35.70;43.40;;;;;;5;36014114;41267051;-88
2021/08/10 13:57:44;;;;;;;;;;;36.50;41.70;;;;;;5;36013644;41265528;-89
2021/08/10 14:01:05;;;;;;;;;;;37.20;38.20;;;;;;5;36014625;41265830;-88
2021/08/10 14:04:20;;;;;;;;;;;37.90;37.70;;;;;;5;36014242;41267327;-87
2021/08/10 14:07:39;;;;;;;;;;;38.40;37.00;;;;;;5;36013685;42015904;-87
2021/08/10 14:10:59;;;;;;;;;;;38.90;36.20;;;;;;5;36014879;41265355;-86
2021/08/10 14:14:18;;;;;;;;;;;38.70;36.20;;;;;;5;36013224;41266404;-87
2021/08/10 14:17:32;;;;;;;;;;;38.70;35.80;;;;;;5;36014298;41265370;-86
2021/08/10 14:20:49;;;;;;;;;;;38.10;35.50;;;;;;5;36013832;41265584;-88
2021/08/10 14:24:09;;;;;;;;;;;37.30;35.80;;;;;;5;36014873;41265409;-88
2021/08/10 14:27:30;;;;;;;;;;;36.80;35.60;;;;;;5;36013451;41266235;-90
2021/08/10 14:30:44;;;;;;;;;;;36.80;36.90;;;;;;5;36013282;41265344;-88
2021/08/10 14:34:01;;;;;;;;;;;37.00;37.20;;;;;;5;36013797;41266197;-88
2021/08/10 14:37:21;;;;;;;;;;;37.30;35.30;;;;;;5;36014116;41266071;-88
2021/08/10 14:40:43;;;;;;;;;;;37.50;35.70;;;;;;5;36014282;42016336;-87
2021/08/10 14:43:57;;;;;;;;;;;37.20;35.90;;;;;;5;36013451;41265897;-87
2021/08/10 14:47:14;;;;;;;;;;;37.00;37.50;;;;;;5;36013644;41266541;-87
2021/08/10 14:50:33;;;;;;;;;;;36.40;38.00;;;;;;5;36013104;41266642;-87
2021/08/10 14:53:53;;;;;;;;;;;35.70;38.40;;;;;;5;36014805;41265208;-87
2021/08/10 14:57:07;;;;;;;;;;;35.00;40.00;;;;;;5;36014127;41265852;-87
2021/08/10 15:00:24;;;;;;;;;;;34.20;41.20;;;;;;5;36015077;41267409;-87
2021/08/10 15:03:44;;;;;;;;;;;33.50;42.50;;;;;;5;36013416;41266806;-87
2021/08/10 15:07:03;;;;;;;;;;;32.90;43.70;;;;;;5;36013885;41266386;-87
2021/08/10 15:10:17;;;;;;;;;;;32.60;44.70;;;;;;5;36015841;41267207;-87
2021/08/10 15:13:36;;;;;;;;;;;32.30;44.80;;;;;;5;36014407;42015650;-88
2021/08/10 15:16:56;;;;;;;;;;;32.20;44.90;;;;;;5;36013352;41270370;-87
2021/08/10 15:20:15;;;;;;;;;;;32.00;45.60;;;;;;5;36013789;41269614;-87
2021/08/10 15:23:29;;;;;;;;;;;31.70;45.30;;;;;;5;36014141;41267297;-88
2021/08/10 15:26:46;;;;;;;;;;;31.40;45.40;;;;;;5;36013915;41267273;-91
2021/08/10 15:30:14;;;;;;;;;;;31.30;46.70;;;;;;5;36013057;41266284;-89
2021/08/10 15:33:33;;;;;;;;;;;31.00;47.00;;;;;;5;36014027;41266135;-89
2021/08/10 15:36:48;;;;;;;;;;;30.60;48.20;;;;;;5;36012849;41265485;-83
2021/08/10 15:40:05;;;;;;;;;;;30.30;48.90;;;;;;5;36013399;41266909;-85
2021/08/10 15:43:25;;;;;;;;;;;30.00;49.20;;;;;;5;36014109;41265824;-86
2021/08/10 15:46:46;;;;;;;;;;;29.70;50.50;;;;;;5;36014325;42017001;-85
2021/08/10 15:50:01;;;;;;;;;;;29.60;49.40;;;;;;5;36015633;41265791;-84
2021/08/10 15:53:18;;;;;;;;;;;29.60;49.90;;;;;;5;36015016;41265851;-85
2021/08/10 15:56:38;;;;;;;;;;;29.60;50.90;;;;;;5;36013232;41266760;-85
2021/08/10 15:59:57;;;;;;;;;;;29.60;51.70;;;;;;5;36012992;41266430;-84
2021/08/10 16:03:11;;;;;;;;;;;29.80;52.20;;;;;;5;36013642;41265821;-84
2021/08/10 16:06:28;;;;;;;;;;;30.00;51.00;;;;;;5;36014543;41265438;-86
2021/08/10 16:09:48;;;;;;;;;;;29.90;50.80;;;;;;5;36012813;41267386;-86
2021/08/10 16:13:08;;;;;;;;;;;29.80;51.00;;;;;;5;36014336;41266331;-86
2021/08/10 16:16:22;;;;;;;;;;;29.50;50.80;;;;;;5;36014586;41265696;-86
2021/08/10 16:19:41;;;;;;;;;;;29.30;50.70;;;;;;5;36013105;42015381;-88
2021/08/10 16:23:03;;;;;;;;;;;29.30;51.00;;;;;;5;36013388;41265864;-87
2021/08/10 16:26:22;;;;;;;;;;;29.30;51.50;;;;;;5;36013473;41266208;-87
2021/08/10 16:29:37;;;;;;;;;;;29.10;52.30;;;;;;5;36013176;41264821;-92
2021/08/10 16:32:54;;;;;;;;;;;29.00;51.90;;;;;;5;36012754;41264542;-92
2021/08/10 16:36:13;;;;;;;;;;;29.00;52.90;;;;;;5;36014163;41264999;-91
2021/08/10 16:39:33;;;;;;;;;;;28.90;52.30;;;;;;5;36014478;41264863;-90
2021/08/10 16:42:47;;;;;;;;;;;28.70;52.30;;;;;;5;36013469;41264192;-86
2021/08/10 16:46:05;;;;;;;;;;;28.60;51.60;;;;;;5;36016171;41266279;-86
2021/08/10 16:49:24;;;;;;;;;;;28.50;53.00;;;;;;5;36014626;41267344;-87
2021/08/10 16:52:45;;;;;;;;;;;28.50;53.30;;;;;;5;36013946;42016049;-86
2021/08/10 16:55:59;;;;;;;;;;;28.50;54.90;;;;;;5;36016192;41266482;-86
2021/08/10 16:59:16;;;;;;;;;;;28.40;54.00;;;;;;5;36014226;41268770;-86
2021/08/10 17:02:36;;;;;;;;;;;28.20;53.80;;;;;;5;36014204;41267031;-87
2021/08/10 17:05:55;;;;;;;;;;;28.10;52.10;;;;;;5;36016706;41267939;-86
2021/08/10 17:09:10;;;;;;;;;;;27.90;52.30;;;;;;5;36014932;41270371;-87
2021/08/10 17:12:27;;;;;;;;;;;27.80;52.70;;;;;;5;36014612;41268622;-86
2021/08/10 17:15:47;;;;;;;;;;;27.80;53.20;;;;;;5;36015478;41270538;-87
2021/08/10 17:19:07;;;;;;;;;;;27.60;53.60;;;;;;5;36014615;41266293;-90
2021/08/10 17:22:21;;;;;;;;;;;27.70;54.20;;;;;;5;36013784;41265943;-87
2021/08/10 17:26:14;;;;;;;;;;;27.70;53.10;;;;;;5;36014124;42016167;-87
2021/08/10 17:29:34;;;;;;;;;;;27.80;53.10;;;;;;5;36014545;41266542;-85
2021/08/10 17:32:58;;;;;;;;;;;27.80;53.40;;;;;;5;36014865;41265776;-86
2021/08/10 17:36:13;;;;;;;;;;;27.80;54.70;;;;;;5;36014707;41266529;-85
2021/08/10 17:39:31;;;;;;;;;;;27.80;52.80;;;;;;5;36013327;41266806;-87
2021/08/10 17:42:51;;;;;;;;;;;27.80;53.40;;;;;;5;36012956;41267432;-86
2021/08/10 17:46:10;;;;;;;;;;;27.70;54.10;;;;;;5;36014510;41266880;-84
2021/08/10 17:49:24;;;;;;;;;;;27.60;53.60;;;;;;5;36014302;41266381;-86
2021/08/10 17:52:44;;;;;;;;;;;27.40;54.70;;;;;;5;36013536;41266998;-87
2021/08/10 17:56:04;;;;;;;;;;;27.20;54.90;;;;;;5;36015850;41266273;-86
2021/08/10 17:59:24;;;;;;;;;;;27.00;55.10;;;;;;5;36014335;42018076;-86
2021/08/10 18:02:39;;;;;;;;;;;26.80;55.00;;;;;;5;36016106;41267590;-87
2021/08/10 18:05:57;;;;;;;;;;;26.70;55.90;;;;;;5;36016100;41267355;-87
2021/08/10 18:09:16;;;;;;;;;;;26.40;57.30;;;;;;5;36015081;41266899;-87
2021/08/10 18:12:35;;;;;;;;;;;26.20;58.50;;;;;;5;36013387;41266620;-87
2021/08/10 18:15:50;;;;;;;;;;;25.90;59.80;;;;;;5;36013510;41266897;-86
2021/08/10 18:19:07;;;;;;;;;;;25.60;61.80;;;;;;5;36013678;41266711;-87
2021/08/10 18:22:26;;;;;;;;;;;25.30;64.10;;;;;;5;36013909;41266945;-86
2021/08/10 18:25:46;;;;;;;;;;;25.10;64.60;;;;;;5;36013640;41266517;-88
2021/08/10 18:29:00;;;;;;;;;;;24.80;67.00;;;;;;5;36013987;41266493;-89
2021/08/10 18:32:18;;;;;;;;;;;24.60;67.50;;;;;;5;36014221;42015538;-89
2021/08/10 18:35:38;;;;;;;;;;;24.30;66.90;;;;;;5;36013782;41266572;-90
2021/08/10 18:38:58;;;;;;;;;;;24.00;68.20;;;;;;5;36013456;41266628;-90
2021/08/10 18:42:12;;;;;;;;;;;23.80;69.30;;;;;;5;36013502;41267758;-86
2021/08/10 18:45:29;;;;;;;;;;;23.50;70.00;;;;;;5;36013735;41266218;-88
2021/08/10 18:48:49;;;;;;;;;;;23.30;70.00;;;;;;5;36013136;41267557;-87
2021/08/10 18:52:08;;;;;;;;;;;23.20;71.00;;;;;;5;36015408;41267741;-89
2021/08/10 18:55:22;;;;;;;;;;;23.00;71.60;;;;;;5;36015191;41265989;-89
2021/08/10 18:58:39;;;;;;;;;;;22.80;72.90;;;;;;5;36013289;41265841;-88
2021/08/10 19:01:59;;;;;;;;;;;22.60;72.70;;;;;;5;36013677;41267428;-90
2021/08/10 19:05:21;;;;;;;;;;;22.50;75.70;;;;;;5;36013549;42016820;-90
2021/08/10 19:08:35;;;;;;;;;;;22.30;75.80;;;;;;5;36013747;41267028;-88
2021/08/10 19:11:53;;;;;;;;;;;22.20;76.10;;;;;;5;36013189;41266708;-89
2021/08/10 19:15:12;;;;;;;;;;;22.00;77.30;;;;;;5;36013493;41266685;-89
2021/08/10 19:18:31;;;;;;;;;;;21.90;77.30;;;;;;5;36013853;41267678;-89
2021/08/10 19:21:46;;;;;;;;;;;21.80;77.40;;;;;;5;36014169;41267687;-89
2021/08/10 19:25:04;;;;;;;;;;;21.70;78.00;;;;;;5;36014550;41265642;-89
2021/08/10 19:28:23;;;;;;;;;;;21.60;80.20;;;;;;5;36013923;41269189;-89
2021/08/10 19:31:43;;;;;;;;;;;21.40;81.80;;;;;;5;36013152;41267967;-89
2021/08/10 19:34:57;;;;;;;;;;;21.30;81.30;;;;;;5;36014958;41266705;-89
2021/08/10 19:38:15;;;;;;;;;;;21.20;80.30;;;;;;5;36014356;42018552;-89
2021/08/10 19:41:35;;;;;;;;;;;21.10;82.20;;;;;;5;36013388;41268194;-89
2021/08/10 19:44:54;;;;;;;;;;;20.90;82.80;;;;;;5;36013622;41266443;-89
2021/08/10 19:48:09;;;;;;;;;;;20.90;84.20;;;;;;5;36013984;41268028;-89
2021/08/10 19:51:26;;;;;;;;;;;20.80;84.50;;;;;;5;36014688;41267323;-89
2021/08/10 19:54:45;;;;;;;;;;;20.70;85.70;;;;;;5;36015595;41267177;-89
2021/08/10 19:58:05;;;;;;;;;;;20.60;85.00;;;;;;5;36014347;41265801;-89
2021/08/10 20:01:19;;;;;;;;;;;20.50;86.50;;;;;;5;36013262;41266383;-85
2021/08/10 20:04:36;;;;;;;;;;;20.50;85.70;;;;;;5;36013956;41266575;-88
2021/08/10 20:07:56;;;;;;;;;;;20.40;87.10;;;;;;5;36013763;41265783;-88
2021/08/10 20:11:16;;;;;;;;;;;20.40;87.70;;;;;;5;36014847;42015759;-88
2021/08/10 20:14:31;;;;;;;;;;;20.40;87.50;;;;;;5;36014795;41266184;-88
2021/08/10 20:17:48;;;;;;;;;;;20.30;88.60;;;;;;5;36015658;41265102;-89
2021/08/10 20:21:07;;;;;;;;;;;20.20;88.90;;;;;;5;36013482;41267079;-89
2021/08/10 20:24:27;;;;;;;;;;;20.20;89.30;;;;;;5;36012908;41267556;-89
2021/08/10 20:27:41;;;;;;;;;;;20.10;90.10;;;;;;5;36013890;41265805;-88
2021/08/10 20:30:58;;;;;;;;;;;20.00;90.50;;;;;;5;36014697;41266102;-88
2021/08/10 20:34:17;;;;;;;;;;;19.90;91.10;;;;;;5;36013771;41266383;-88
2021/08/10 20:37:37;;;;;;;;;;;19.90;91.20;;;;;;5;36015456;41266099;-87
2021/08/10 20:40:51;;;;;;;;;;;19.80;91.50;;;;;;5;36013461;41266420;-87
2021/08/10 20:44:10;;;;;;;;;;;19.70;92.80;;;;;;5;36014508;42016485;-87
2021/08/10 20:47:29;;;;;;;;;;;19.60;93.20;;;;;;5;36013963;41267218;-89
2021/08/10 20:50:49;;;;;;;;;;;19.50;93.80;;;;;;5;36013623;41266857;-90
2021/08/10 20:54:03;;;;;;;;;;;19.60;94.30;;;;;;5;36014857;41266034;-92
2021/08/10 20:57:20;;;;;;;;;;;19.50;94.80;;;;;;5;36014720;41265631;-90
2021/08/10 21:00:40;;;;;;;;;;;19.40;94.70;;;;;;5;36014891;41265870;-90
2021/08/10 21:03:59;;;;;;;;;;;19.30;95.40;;;;;;5;36014527;41265673;-90
2021/08/10 21:07:14;;;;;;;;;;;19.30;95.60;;;;;;5;36014226;41265681;-90
2021/08/10 21:10:31;;;;;;;;;;;19.30;95.90;;;;;;5;36013470;41265534;-89
2021/08/10 21:13:50;;;;;;;;;;;19.20;96.10;;;;;;5;36013181;41266364;-90
2021/08/10 21:17:11;;;;;;;;;;;19.20;96.30;;;;;;5;36013763;42017236;-90